Houston, Canada
Current Conditions -  °F | °C
As of 8:00 AM on Wednesday 22 Oct 2014 (Local Time) from CYYD Reporting Station
Moderate Fog Moderate Fog  
Wind Chill: 36°   Ceiling: 1000
Heat Index: 36°   Visibility: 0.5mi
Dew Point: 36°   Wind: 2mph
Humidity: 100%   Direction: NA
Pressure: 29.45"   Gusts: NA
Location:  54.4°N, 126.65°W
Report Text: CYYD 221500Z VRB02KT 1/2SM FG BKN010 BKN065 02/02 A2945 RMK FG3SC2SC2 VIS HIER E SLP984
Loading
Personal Weather Stations






























Interactive Weather Map
Tropical Storm Tracking
New forecast layout! Learn more

10-Day Weather Forecast

Advertisements
Track Severe Weather on mobile